Yankeetown, Ohio
Current Conditions -  °F | °C
As of 7:53 PM on Saturday 22 Nov 2014 (Local Time) from KLUK Reporting Station
Broken Clouds Broken Clouds  
Wind Chill: 46°   Ceiling: 8000
Heat Index: 49°   Visibility: 10mi
Dew Point: 36°   Wind: 7mph
Humidity: 61%   Direction: 210°SSW
Pressure: 30.1"   Gusts: NA
Location:  38.9067°N, 83.9997°W
Report Text: KLUK 230053Z 21006KT 10SM BKN080 09/02 A3010 RMK AO2 SLP196 T00940022
Loading
Personal Weather Stations






























Interactive Weather Map New forecast layout! Learn more

10-Day Weather Forecast

Advertisements
Track Severe Weather on mobile